sensor_id;sensor_type;location;lat;lon;timestamp;P1;durP1;ratioP1;P2;durP2;ratioP2
25653;SDS011;13511;48.622;9.230;2023-11-22T00:00:09;22.67;;;10.25;;
25653;SDS011;13511;48.622;9.230;2023-11-22T00:02:35;16.73;;;10.15;;
25653;SDS011;13511;48.622;9.230;2023-11-22T00:05:02;19.88;;;11.07;;
25653;SDS011;13511;48.622;9.230;2023-11-22T00:07:28;16.60;;;10.85;;
25653;SDS011;13511;48.622;9.230;2023-11-22T00:09:54;18.25;;;10.38;;
25653;SDS011;13511;48.622;9.230;2023-11-22T00:12:20;19.77;;;11.35;;
25653;SDS011;13511;48.622;9.230;2023-11-22T00:14:48;19.20;;;9.95;;
25653;SDS011;13511;48.622;9.230;2023-11-22T00:17:14;14.93;;;10.02;;
25653;SDS011;13511;48.622;9.230;2023-11-22T00:19:42;14.70;;;9.85;;
25653;SDS011;13511;48.622;9.230;2023-11-22T00:22:09;21.63;;;10.73;;
25653;SDS011;13511;48.622;9.230;2023-11-22T00:24:38;16.52;;;10.60;;
25653;SDS011;13511;48.622;9.230;2023-11-22T00:27:04;18.65;;;10.50;;
25653;SDS011;13511;48.622;9.230;2023-11-22T00:29:31;18.17;;;10.40;;
25653;SDS011;13511;48.622;9.230;2023-11-22T00:31:57;24.30;;;9.90;;
25653;SDS011;13511;48.622;9.230;2023-11-22T00:34:23;18.70;;;10.52;;
25653;SDS011;13511;48.622;9.230;2023-11-22T00:36:50;21.13;;;11.30;;
25653;SDS011;13511;48.622;9.230;2023-11-22T00:39:16;18.83;;;10.45;;
25653;SDS011;13511;48.622;9.230;2023-11-22T00:41:42;14.20;;;10.07;;
25653;SDS011;13511;48.622;9.230;2023-11-22T00:44:09;19.13;;;10.55;;
25653;SDS011;13511;48.622;9.230;2023-11-22T00:46:35;15.02;;;9.52;;
25653;SDS011;13511;48.622;9.230;2023-11-22T00:49:04;13.55;;;8.55;;
25653;SDS011;13511;48.622;9.230;2023-11-22T00:51:31;9.60;;;5.40;;
25653;SDS011;13511;48.622;9.230;2023-11-22T00:54:00;4.43;;;4.00;;
25653;SDS011;13511;48.622;9.230;2023-11-22T00:56:26;3.28;;;2.97;;
25653;SDS011;13511;48.622;9.230;2023-11-22T00:58:52;4.63;;;2.88;;
25653;SDS011;13511;48.622;9.230;2023-11-22T01:01:19;2.55;;;2.35;;
25653;SDS011;13511;48.622;9.230;2023-11-22T01:03:45;2.92;;;2.72;;
25653;SDS011;13511;48.622;9.230;2023-11-22T01:06:12;3.38;;;3.17;;
25653;SDS011;13511;48.622;9.230;2023-11-22T01:08:38;2.80;;;2.60;;
25653;SDS011;13511;48.622;9.230;2023-11-22T01:11:04;3.47;;;3.28;;
25653;SDS011;13511;48.622;9.230;2023-11-22T01:13:30;3.97;;;3.55;;
25653;SDS011;13511;48.622;9.230;2023-11-22T01:15:57;3.63;;;3.35;;
25653;SDS011;13511;48.622;9.230;2023-11-22T01:18:23;4.07;;;3.78;;
25653;SDS011;13511;48.622;9.230;2023-11-22T01:20:49;4.75;;;4.35;;
25653;SDS011;13511;48.622;9.230;2023-11-22T01:23:15;4.43;;;4.13;;
25653;SDS011;13511;48.622;9.230;2023-11-22T01:25:41;5.78;;;4.97;;
25653;SDS011;13511;48.622;9.230;2023-11-22T01:28:07;5.80;;;5.35;;
25653;SDS011;13511;48.622;9.230;2023-11-22T01:30:36;5.53;;;5.13;;
25653;SDS011;13511;48.622;9.230;2023-11-22T01:33:03;5.43;;;4.93;;
25653;SDS011;13511;48.622;9.230;2023-11-22T01:35:29;7.38;;;6.00;;
25653;SDS011;13511;48.622;9.230;2023-11-22T01:37:55;5.50;;;5.00;;
25653;SDS011;13511;48.622;9.230;2023-11-22T01:40:22;5.03;;;4.63;;
25653;SDS011;13511;48.622;9.230;2023-11-22T01:42:51;5.53;;;5.13;;
25653;SDS011;13511;48.622;9.230;2023-11-22T01:45:19;5.75;;;5.28;;
25653;SDS011;13511;48.622;9.230;2023-11-22T01:47:45;5.80;;;5.38;;
25653;SDS011;13511;48.622;9.230;2023-11-22T01:50:11;7.82;;;5.65;;
25653;SDS011;13511;48.622;9.230;2023-11-22T01:52:39;6.78;;;6.13;;
25653;SDS011;13511;48.622;9.230;2023-11-22T01:55:05;6.55;;;5.97;;
25653;SDS011;13511;48.622;9.230;2023-11-22T01:57:33;5.80;;;5.30;;
25653;SDS011;13511;48.622;9.230;2023-11-22T02:00:03;6.50;;;5.90;;
25653;SDS011;13511;48.622;9.230;2023-11-22T02:02:32;6.00;;;5.40;;
25653;SDS011;13511;48.622;9.230;2023-11-22T02:04:58;5.53;;;5.10;;
25653;SDS011;13511;48.622;9.230;2023-11-22T02:07:24;5.72;;;5.22;;
25653;SDS011;13511;48.622;9.230;2023-11-22T02:09:52;6.82;;;5.32;;
25653;SDS011;13511;48.622;9.230;2023-11-22T02:12:19;5.50;;;5.00;;
25653;SDS011;13511;48.622;9.230;2023-11-22T02:14:45;6.10;;;5.45;;
25653;SDS011;13511;48.622;9.230;2023-11-22T02:17:11;6.03;;;5.50;;
25653;SDS011;13511;48.622;9.230;2023-11-22T02:19:37;5.22;;;4.82;;
25653;SDS011;13511;48.622;9.230;2023-11-22T02:22:03;6.15;;;5.65;;
25653;SDS011;13511;48.622;9.230;2023-11-22T02:24:29;6.32;;;5.80;;
25653;SDS011;13511;48.622;9.230;2023-11-22T02:26:55;6.63;;;5.90;;
25653;SDS011;13511;48.622;9.230;2023-11-22T02:29:21;5.60;;;5.18;;
25653;SDS011;13511;48.622;9.230;2023-11-22T02:31:48;6.82;;;5.80;;
25653;SDS011;13511;48.622;9.230;2023-11-22T02:34:14;10.77;;;6.10;;
25653;SDS011;13511;48.622;9.230;2023-11-22T02:36:42;6.90;;;6.30;;
25653;SDS011;13511;48.622;9.230;2023-11-22T02:39:10;7.13;;;6.50;;
25653;SDS011;13511;48.622;9.230;2023-11-22T02:41:38;6.75;;;6.15;;
25653;SDS011;13511;48.622;9.230;2023-11-22T02:44:04;6.40;;;5.90;;
25653;SDS011;13511;48.622;9.230;2023-11-22T02:46:32;6.78;;;6.15;;
25653;SDS011;13511;48.622;9.230;2023-11-22T02:48:58;6.00;;;5.40;;
25653;SDS011;13511;48.622;9.230;2023-11-22T02:51:24;5.95;;;5.45;;
25653;SDS011;13511;48.622;9.230;2023-11-22T02:53:50;6.43;;;5.82;;
25653;SDS011;13511;48.622;9.230;2023-11-22T02:56:16;5.88;;;5.38;;
25653;SDS011;13511;48.622;9.230;2023-11-22T02:58:42;6.40;;;5.60;;
25653;SDS011;13511;48.622;9.230;2023-11-22T03:01:08;6.50;;;5.75;;
25653;SDS011;13511;48.622;9.230;2023-11-22T03:03:34;5.85;;;5.25;;
25653;SDS011;13511;48.622;9.230;2023-11-22T03:06:00;6.22;;;5.63;;
25653;SDS011;13511;48.622;9.230;2023-11-22T03:08:26;6.18;;;5.57;;
25653;SDS011;13511;48.622;9.230;2023-11-22T03:10:53;5.88;;;5.32;;
25653;SDS011;13511;48.622;9.230;2023-11-22T03:13:19;6.07;;;5.57;;
25653;SDS011;13511;48.622;9.230;2023-11-22T03:15:45;8.63;;;5.30;;
25653;SDS011;13511;48.622;9.230;2023-11-22T03:18:11;5.97;;;5.47;;
25653;SDS011;13511;48.622;9.230;2023-11-22T03:20:37;5.72;;;5.20;;
25653;SDS011;13511;48.622;9.230;2023-11-22T03:23:04;5.55;;;5.05;;
25653;SDS011;13511;48.622;9.230;2023-11-22T03:25:30;6.15;;;5.55;;
25653;SDS011;13511;48.622;9.230;2023-11-22T03:27:56;6.80;;;6.10;;
25653;SDS011;13511;48.622;9.230;2023-11-22T03:30:22;6.55;;;5.95;;
25653;SDS011;13511;48.622;9.230;2023-11-22T03:32:48;6.55;;;5.88;;
25653;SDS011;13511;48.622;9.230;2023-11-22T03:35:14;6.68;;;5.97;;
25653;SDS011;13511;48.622;9.230;2023-11-22T03:37:41;6.88;;;6.10;;
25653;SDS011;13511;48.622;9.230;2023-11-22T03:40:08;7.80;;;5.72;;
25653;SDS011;13511;48.622;9.230;2023-11-22T03:42:36;7.47;;;6.18;;
25653;SDS011;13511;48.622;9.230;2023-11-22T03:45:02;7.85;;;5.93;;
25653;SDS011;13511;48.622;9.230;2023-11-22T03:47:28;6.88;;;6.10;;
25653;SDS011;13511;48.622;9.230;2023-11-22T03:49:54;6.13;;;5.43;;
25653;SDS011;13511;48.622;9.230;2023-11-22T03:52:20;5.82;;;5.32;;
25653;SDS011;13511;48.622;9.230;2023-11-22T03:54:46;6.90;;;6.20;;
25653;SDS011;13511;48.622;9.230;2023-11-22T03:57:12;6.05;;;5.45;;
25653;SDS011;13511;48.622;9.230;2023-11-22T03:59:40;6.53;;;5.93;;
25653;SDS011;13511;48.622;9.230;2023-11-22T04:02:07;6.60;;;6.00;;
25653;SDS011;13511;48.622;9.230;2023-11-22T04:04:33;6.15;;;5.63;;
25653;SDS011;13511;48.622;9.230;2023-11-22T04:06:58;7.63;;;6.93;;
25653;SDS011;13511;48.622;9.230;2023-11-22T04:09:24;8.93;;;6.80;;
25653;SDS011;13511;48.622;9.230;2023-11-22T04:11:50;5.78;;;5.32;;
25653;SDS011;13511;48.622;9.230;2023-11-22T04:14:16;7.20;;;6.22;;
25653;SDS011;13511;48.622;9.230;2023-11-22T04:16:45;6.68;;;5.43;;
25653;SDS011;13511;48.622;9.230;2023-11-22T04:19:11;6.22;;;5.63;;
25653;SDS011;13511;48.622;9.230;2023-11-22T04:21:37;8.10;;;6.10;;
25653;SDS011;13511;48.622;9.230;2023-11-22T04:24:03;6.68;;;6.00;;
25653;SDS011;13511;48.622;9.230;2023-11-22T04:26:29;7.93;;;6.40;;
25653;SDS011;13511;48.622;9.230;2023-11-22T04:28:55;7.03;;;6.43;;
25653;SDS011;13511;48.622;9.230;2023-11-22T04:31:21;8.73;;;6.70;;
25653;SDS011;13511;48.622;9.230;2023-11-22T04:33:47;6.28;;;5.68;;
25653;SDS011;13511;48.622;9.230;2023-11-22T04:36:13;7.03;;;6.43;;
25653;SDS011;13511;48.622;9.230;2023-11-22T04:38:39;6.60;;;6.00;;
25653;SDS011;13511;48.622;9.230;2023-11-22T04:41:05;8.68;;;6.30;;
25653;SDS011;13511;48.622;9.230;2023-11-22T04:43:31;7.25;;;6.13;;
25653;SDS011;13511;48.622;9.230;2023-11-22T04:45:57;6.53;;;5.93;;
25653;SDS011;13511;48.622;9.230;2023-11-22T04:48:23;6.47;;;5.88;;
25653;SDS011;13511;48.622;9.230;2023-11-22T04:50:49;6.38;;;5.82;;
25653;SDS011;13511;48.622;9.230;2023-11-22T04:53:15;6.13;;;5.55;;
25653;SDS011;13511;48.622;9.230;2023-11-22T04:55:42;6.60;;;5.95;;
25653;SDS011;13511;48.622;9.230;2023-11-22T04:58:08;7.60;;;6.68;;
25653;SDS011;13511;48.622;9.230;2023-11-22T05:00:34;6.45;;;5.90;;
25653;SDS011;13511;48.622;9.230;2023-11-22T05:03:00;6.30;;;5.72;;
25653;SDS011;13511;48.622;9.230;2023-11-22T05:05:26;6.38;;;5.72;;
25653;SDS011;13511;48.622;9.230;2023-11-22T05:07:52;6.22;;;5.72;;
25653;SDS011;13511;48.622;9.230;2023-11-22T05:10:18;6.57;;;5.93;;
25653;SDS011;13511;48.622;9.230;2023-11-22T05:12:44;6.55;;;6.05;;
25653;SDS011;13511;48.622;9.230;2023-11-22T05:15:10;6.63;;;6.03;;
25653;SDS011;13511;48.622;9.230;2023-11-22T05:17:36;6.65;;;6.05;;
25653;SDS011;13511;48.622;9.230;2023-11-22T05:20:03;6.18;;;5.57;;
25653;SDS011;13511;48.622;9.230;2023-11-22T05:22:30;7.72;;;5.70;;
25653;SDS011;13511;48.622;9.230;2023-11-22T05:24:56;6.50;;;5.90;;
25653;SDS011;13511;48.622;9.230;2023-11-22T05:27:22;6.18;;;5.63;;
25653;SDS011;13511;48.622;9.230;2023-11-22T05:29:48;6.90;;;6.28;;
25653;SDS011;13511;48.622;9.230;2023-11-22T05:32:14;6.15;;;5.60;;
25653;SDS011;13511;48.622;9.230;2023-11-22T05:34:40;8.20;;;6.15;;
25653;SDS011;13511;48.622;9.230;2023-11-22T05:37:06;5.97;;;5.47;;
25653;SDS011;13511;48.622;9.230;2023-11-22T05:39:32;7.32;;;6.55;;
25653;SDS011;13511;48.622;9.230;2023-11-22T05:41:58;6.72;;;6.13;;
25653;SDS011;13511;48.622;9.230;2023-11-22T05:44:24;6.43;;;5.93;;
25653;SDS011;13511;48.622;9.230;2023-11-22T05:46:51;8.15;;;5.97;;
25653;SDS011;13511;48.622;9.230;2023-11-22T05:49:17;8.77;;;5.82;;
25653;SDS011;13511;48.622;9.230;2023-11-22T05:51:43;7.00;;;6.30;;
25653;SDS011;13511;48.622;9.230;2023-11-22T05:54:09;6.80;;;5.97;;
25653;SDS011;13511;48.622;9.230;2023-11-22T05:56:37;6.78;;;6.18;;
25653;SDS011;13511;48.622;9.230;2023-11-22T05:59:04;7.07;;;6.30;;
25653;SDS011;13511;48.622;9.230;2023-11-22T06:01:29;6.78;;;6.03;;
25653;SDS011;13511;48.622;9.230;2023-11-22T06:03:56;6.57;;;5.97;;
25653;SDS011;13511;48.622;9.230;2023-11-22T06:06:22;6.00;;;5.50;;
25653;SDS011;13511;48.622;9.230;2023-11-22T06:08:48;8.82;;;5.97;;
25653;SDS011;13511;48.622;9.230;2023-11-22T06:11:14;8.38;;;5.55;;
25653;SDS011;13511;48.622;9.230;2023-11-22T06:13:43;6.72;;;6.07;;
25653;SDS011;13511;48.622;9.230;2023-11-22T06:16:11;7.80;;;6.20;;
25653;SDS011;13511;48.622;9.230;2023-11-22T06:18:37;6.53;;;5.93;;
25653;SDS011;13511;48.622;9.230;2023-11-22T06:21:08;6.35;;;5.85;;
25653;SDS011;13511;48.622;9.230;2023-11-22T06:23:34;6.47;;;5.97;;
25653;SDS011;13511;48.622;9.230;2023-11-22T06:26:00;6.85;;;6.25;;
25653;SDS011;13511;48.622;9.230;2023-11-22T06:28:26;10.60;;;6.45;;
25653;SDS011;13511;48.622;9.230;2023-11-22T06:30:53;7.97;;;6.60;;
25653;SDS011;13511;48.622;9.230;2023-11-22T06:33:19;6.80;;;6.20;;
25653;SDS011;13511;48.622;9.230;2023-11-22T06:35:45;6.47;;;5.97;;
25653;SDS011;13511;48.622;9.230;2023-11-22T06:38:12;6.55;;;6.05;;
25653;SDS011;13511;48.622;9.230;2023-11-22T06:40:38;7.18;;;6.45;;
25653;SDS011;13511;48.622;9.230;2023-11-22T06:43:04;6.53;;;6.00;;
25653;SDS011;13511;48.622;9.230;2023-11-22T06:45:30;6.50;;;6.00;;
25653;SDS011;13511;48.622;9.230;2023-11-22T06:47:56;8.88;;;5.88;;
25653;SDS011;13511;48.622;9.230;2023-11-22T06:50:23;6.72;;;6.03;;
25653;SDS011;13511;48.622;9.230;2023-11-22T06:52:49;7.50;;;6.80;;
25653;SDS011;13511;48.622;9.230;2023-11-22T06:55:17;7.05;;;6.45;;
25653;SDS011;13511;48.622;9.230;2023-11-22T06:57:43;6.93;;;6.32;;
25653;SDS011;13511;48.622;9.230;2023-11-22T07:00:09;7.00;;;6.40;;
25653;SDS011;13511;48.622;9.230;2023-11-22T07:02:36;8.18;;;6.95;;
25653;SDS011;13511;48.622;9.230;2023-11-22T07:05:02;8.70;;;6.63;;
25653;SDS011;13511;48.622;9.230;2023-11-22T07:07:28;7.68;;;6.85;;
25653;SDS011;13511;48.622;9.230;2023-11-22T07:09:55;7.72;;;7.03;;
25653;SDS011;13511;48.622;9.230;2023-11-22T07:12:24;7.65;;;7.05;;
25653;SDS011;13511;48.622;9.230;2023-11-22T07:14:51;7.97;;;7.18;;
25653;SDS011;13511;48.622;9.230;2023-11-22T07:17:17;7.45;;;6.85;;
25653;SDS011;13511;48.622;9.230;2023-11-22T07:19:44;7.50;;;6.80;;
25653;SDS011;13511;48.622;9.230;2023-11-22T07:22:13;7.35;;;6.68;;
25653;SDS011;13511;48.622;9.230;2023-11-22T07:24:44;7.63;;;6.97;;
25653;SDS011;13511;48.622;9.230;2023-11-22T07:27:11;7.45;;;6.85;;
25653;SDS011;13511;48.622;9.230;2023-11-22T07:29:40;9.20;;;6.65;;
25653;SDS011;13511;48.622;9.230;2023-11-22T07:32:07;6.32;;;5.80;;
25653;SDS011;13511;48.622;9.230;2023-11-22T07:34:37;7.35;;;6.75;;
25653;SDS011;13511;48.622;9.230;2023-11-22T07:37:04;7.28;;;6.68;;
25653;SDS011;13511;48.622;9.230;2023-11-22T07:39:32;7.13;;;6.50;;
25653;SDS011;13511;48.622;9.230;2023-11-22T07:42:00;7.55;;;6.88;;
25653;SDS011;13511;48.622;9.230;2023-11-22T07:44:26;7.55;;;6.85;;
25653;SDS011;13511;48.622;9.230;2023-11-22T07:46:52;7.57;;;6.88;;
25653;SDS011;13511;48.622;9.230;2023-11-22T07:49:21;7.30;;;6.18;;
25653;SDS011;13511;48.622;9.230;2023-11-22T07:51:48;8.23;;;6.80;;
25653;SDS011;13511;48.622;9.230;2023-11-22T07:54:17;8.32;;;6.70;;
25653;SDS011;13511;48.622;9.230;2023-11-22T07:56:43;8.73;;;7.30;;
25653;SDS011;13511;48.622;9.230;2023-11-22T07:59:09;7.75;;;7.05;;
25653;SDS011;13511;48.622;9.230;2023-11-22T08:01:38;7.13;;;6.53;;
25653;SDS011;13511;48.622;9.230;2023-11-22T08:04:04;8.15;;;7.07;;
25653;SDS011;13511;48.622;9.230;2023-11-22T08:06:32;7.43;;;6.72;;
25653;SDS011;13511;48.622;9.230;2023-11-22T08:08:58;7.22;;;6.43;;
25653;SDS011;13511;48.622;9.230;2023-11-22T08:13:56;6.57;;;6.07;;
25653;SDS011;13511;48.622;9.230;2023-11-22T08:16:24;6.93;;;5.50;;
25653;SDS011;13511;48.622;9.230;2023-11-22T08:18:50;6.43;;;5.93;;
25653;SDS011;13511;48.622;9.230;2023-11-22T08:21:16;7.50;;;6.00;;
25653;SDS011;13511;48.622;9.230;2023-11-22T08:23:42;6.43;;;5.68;;
25653;SDS011;13511;48.622;9.230;2023-11-22T08:26:08;6.40;;;5.88;;
25653;SDS011;13511;48.622;9.230;2023-11-22T08:28:34;8.63;;;6.25;;
25653;SDS011;13511;48.622;9.230;2023-11-22T08:31:00;6.28;;;5.78;;
25653;SDS011;13511;48.622;9.230;2023-11-22T08:33:26;5.57;;;5.07;;
25653;SDS011;13511;48.622;9.230;2023-11-22T08:35:53;6.90;;;5.45;;
25653;SDS011;13511;48.622;9.230;2023-11-22T08:38:23;6.80;;;6.20;;
25653;SDS011;13511;48.622;9.230;2023-11-22T08:40:51;7.28;;;6.60;;
25653;SDS011;13511;48.622;9.230;2023-11-22T08:43:17;9.68;;;5.97;;
25653;SDS011;13511;48.622;9.230;2023-11-22T08:45:48;6.60;;;5.90;;
25653;SDS011;13511;48.622;9.230;2023-11-22T08:48:14;6.53;;;6.03;;
25653;SDS011;13511;48.622;9.230;2023-11-22T08:50:41;8.00;;;6.10;;
25653;SDS011;13511;48.622;9.230;2023-11-22T08:53:09;6.80;;;6.10;;
25653;SDS011;13511;48.622;9.230;2023-11-22T08:55:35;6.55;;;5.75;;
25653;SDS011;13511;48.622;9.230;2023-11-22T08:58:01;6.32;;;5.82;;
25653;SDS011;13511;48.622;9.230;2023-11-22T09:00:27;6.60;;;6.00;;
25653;SDS011;13511;48.622;9.230;2023-11-22T09:02:57;7.72;;;6.93;;
25653;SDS011;13511;48.622;9.230;2023-11-22T09:05:23;6.75;;;5.90;;
25653;SDS011;13511;48.622;9.230;2023-11-22T09:07:49;6.45;;;5.85;;
25653;SDS011;13511;48.622;9.230;2023-11-22T09:10:16;8.88;;;6.38;;
25653;SDS011;13511;48.622;9.230;2023-11-22T09:12:43;6.78;;;6.18;;
25653;SDS011;13511;48.622;9.230;2023-11-22T09:15:10;7.20;;;6.60;;
25653;SDS011;13511;48.622;9.230;2023-11-22T09:17:37;10.00;;;6.53;;
25653;SDS011;13511;48.622;9.230;2023-11-22T09:20:11;7.20;;;6.50;;
25653;SDS011;13511;48.622;9.230;2023-11-22T09:22:41;6.57;;;6.00;;
25653;SDS011;13511;48.622;9.230;2023-11-22T09:25:10;7.10;;;6.50;;
25653;SDS011;13511;48.622;9.230;2023-11-22T09:27:36;8.10;;;6.25;;
25653;SDS011;13511;48.622;9.230;2023-11-22T09:30:03;6.40;;;5.90;;
25653;SDS011;13511;48.622;9.230;2023-11-22T09:32:30;7.07;;;6.47;;
25653;SDS011;13511;48.622;9.230;2023-11-22T09:34:56;7.72;;;6.97;;
25653;SDS011;13511;48.622;9.230;2023-11-22T09:37:23;9.75;;;7.20;;
25653;SDS011;13511;48.622;9.230;2023-11-22T09:39:50;8.65;;;6.85;;
25653;SDS011;13511;48.622;9.230;2023-11-22T09:42:16;9.13;;;7.35;;
25653;SDS011;13511;48.622;9.230;2023-11-22T09:44:42;8.23;;;7.43;;
25653;SDS011;13511;48.622;9.230;2023-11-22T09:47:08;7.38;;;6.70;;
25653;SDS011;13511;48.622;9.230;2023-11-22T09:49:34;9.40;;;6.57;;
25653;SDS011;13511;48.622;9.230;2023-11-22T09:52:01;11.15;;;6.78;;
25653;SDS011;13511;48.622;9.230;2023-11-22T09:54:28;9.15;;;7.53;;
25653;SDS011;13511;48.622;9.230;2023-11-22T09:56:56;7.03;;;6.32;;
25653;SDS011;13511;48.622;9.230;2023-11-22T09:59:22;7.53;;;6.43;;
25653;SDS011;13511;48.622;9.230;2023-11-22T10:01:49;7.78;;;6.82;;
25653;SDS011;13511;48.622;9.230;2023-11-22T10:04:17;7.60;;;7.00;;
25653;SDS011;13511;48.622;9.230;2023-11-22T10:06:43;8.63;;;7.60;;
25653;SDS011;13511;48.622;9.230;2023-11-22T10:09:11;9.30;;;7.45;;
25653;SDS011;13511;48.622;9.230;2023-11-22T10:11:39;8.63;;;7.18;;
25653;SDS011;13511;48.622;9.230;2023-11-22T10:14:08;10.88;;;7.28;;
25653;SDS011;13511;48.622;9.230;2023-11-22T10:16:35;7.22;;;6.63;;
25653;SDS011;13511;48.622;9.230;2023-11-22T10:19:01;7.43;;;6.57;;
25653;SDS011;13511;48.622;9.230;2023-11-22T10:21:29;8.27;;;7.07;;
25653;SDS011;13511;48.622;9.230;2023-11-22T10:23:57;11.02;;;6.72;;
25653;SDS011;13511;48.622;9.230;2023-11-22T10:26:24;8.63;;;6.60;;
25653;SDS011;13511;48.622;9.230;2023-11-22T10:28:50;7.53;;;6.78;;
25653;SDS011;13511;48.622;9.230;2023-11-22T10:31:17;7.35;;;6.65;;
25653;SDS011;13511;48.622;9.230;2023-11-22T10:33:44;7.50;;;6.78;;
25653;SDS011;13511;48.622;9.230;2023-11-22T10:36:10;8.57;;;6.63;;
25653;SDS011;13511;48.622;9.230;2023-11-22T10:38:37;11.95;;;7.15;;
25653;SDS011;13511;48.622;9.230;2023-11-22T10:41:07;9.13;;;7.28;;
25653;SDS011;13511;48.622;9.230;2023-11-22T10:43:34;9.32;;;8.40;;
25653;SDS011;13511;48.622;9.230;2023-11-22T10:46:03;8.02;;;7.32;;
25653;SDS011;13511;48.622;9.230;2023-11-22T10:48:30;8.18;;;7.32;;
25653;SDS011;13511;48.622;9.230;2023-11-22T10:50:58;7.85;;;6.80;;
25653;SDS011;13511;48.622;9.230;2023-11-22T10:53:36;8.02;;;7.22;;
25653;SDS011;13511;48.622;9.230;2023-11-22T10:56:07;8.30;;;7.38;;
25653;SDS011;13511;48.622;9.230;2023-11-22T10:58:39;8.20;;;7.32;;
25653;SDS011;13511;48.622;9.230;2023-11-22T11:01:08;8.02;;;7.25;;
25653;SDS011;13511;48.622;9.230;2023-11-22T11:03:36;7.63;;;6.93;;
25653;SDS011;13511;48.622;9.230;2023-11-22T11:06:05;8.30;;;7.53;;
25653;SDS011;13511;48.622;9.230;2023-11-22T11:08:34;8.93;;;7.30;;
25653;SDS011;13511;48.622;9.230;2023-11-22T11:11:03;8.10;;;7.07;;
25653;SDS011;13511;48.622;9.230;2023-11-22T11:13:31;10.82;;;6.88;;
25653;SDS011;13511;48.622;9.230;2023-11-22T11:15:58;8.23;;;7.40;;
25653;SDS011;13511;48.622;9.230;2023-11-22T11:18:25;10.27;;;8.23;;
25653;SDS011;13511;48.622;9.230;2023-11-22T11:20:56;9.90;;;8.30;;
25653;SDS011;13511;48.622;9.230;2023-11-22T11:23:23;7.85;;;7.15;;
25653;SDS011;13511;48.622;9.230;2023-11-22T11:25:53;11.40;;;7.30;;
25653;SDS011;13511;48.622;9.230;2023-11-22T11:28:19;10.35;;;7.65;;
25653;SDS011;13511;48.622;9.230;2023-11-22T11:33:13;11.23;;;7.80;;
25653;SDS011;13511;48.622;9.230;2023-11-22T11:35:43;9.50;;;7.13;;
25653;SDS011;13511;48.622;9.230;2023-11-22T11:38:12;8.57;;;7.55;;
25653;SDS011;13511;48.622;9.230;2023-11-22T11:40:39;11.23;;;7.93;;
25653;SDS011;13511;48.622;9.230;2023-11-22T11:43:06;9.23;;;7.20;;
25653;SDS011;13511;48.622;9.230;2023-11-22T11:45:38;7.95;;;7.15;;
25653;SDS011;13511;48.622;9.230;2023-11-22T11:48:05;13.48;;;8.07;;
25653;SDS011;13511;48.622;9.230;2023-11-22T11:50:31;10.20;;;7.90;;
25653;SDS011;13511;48.622;9.230;2023-11-22T11:52:57;8.60;;;7.70;;
25653;SDS011;13511;48.622;9.230;2023-11-22T11:55:23;9.05;;;8.15;;
25653;SDS011;13511;48.622;9.230;2023-11-22T11:57:53;10.52;;;8.02;;
25653;SDS011;13511;48.622;9.230;2023-11-22T12:00:20;10.23;;;9.20;;
25653;SDS011;13511;48.622;9.230;2023-11-22T12:02:48;8.95;;;8.02;;
25653;SDS011;13511;48.622;9.230;2023-11-22T12:05:14;8.23;;;7.25;;
25653;SDS011;13511;48.622;9.230;2023-11-22T12:07:40;8.32;;;7.53;;
25653;SDS011;13511;48.622;9.230;2023-11-22T12:10:07;9.32;;;7.55;;
25653;SDS011;13511;48.622;9.230;2023-11-22T12:12:34;9.32;;;7.65;;
25653;SDS011;13511;48.622;9.230;2023-11-22T12:15:00;10.07;;;7.70;;
25653;SDS011;13511;48.622;9.230;2023-11-22T12:17:26;8.73;;;7.80;;
25653;SDS011;13511;48.622;9.230;2023-11-22T12:19:53;15.93;;;8.40;;
25653;SDS011;13511;48.622;9.230;2023-11-22T12:22:20;8.65;;;7.15;;
25653;SDS011;13511;48.622;9.230;2023-11-22T12:24:46;11.30;;;7.63;;
25653;SDS011;13511;48.622;9.230;2023-11-22T12:27:12;10.02;;;8.30;;
25653;SDS011;13511;48.622;9.230;2023-11-22T12:29:39;10.48;;;8.82;;
25653;SDS011;13511;48.622;9.230;2023-11-22T12:32:06;8.43;;;7.60;;
25653;SDS011;13511;48.622;9.230;2023-11-22T12:34:33;9.27;;;8.30;;
25653;SDS011;13511;48.622;9.230;2023-11-22T12:36:59;16.60;;;8.27;;
25653;SDS011;13511;48.622;9.230;2023-11-22T12:39:25;9.23;;;8.10;;
25653;SDS011;13511;48.622;9.230;2023-11-22T12:41:52;9.90;;;8.38;;
25653;SDS011;13511;48.622;9.230;2023-11-22T12:44:18;8.75;;;7.63;;
25653;SDS011;13511;48.622;9.230;2023-11-22T12:49:11;9.23;;;7.78;;
25653;SDS011;13511;48.622;9.230;2023-11-22T12:51:38;9.18;;;7.68;;
25653;SDS011;13511;48.622;9.230;2023-11-22T12:54:04;13.80;;;8.85;;
25653;SDS011;13511;48.622;9.230;2023-11-22T12:56:31;9.38;;;8.43;;
25653;SDS011;13511;48.622;9.230;2023-11-22T12:58:58;9.48;;;7.68;;
25653;SDS011;13511;48.622;9.230;2023-11-22T13:01:25;10.50;;;8.60;;
25653;SDS011;13511;48.622;9.230;2023-11-22T13:03:53;8.82;;;7.93;;
25653;SDS011;13511;48.622;9.230;2023-11-22T13:06:19;9.30;;;8.38;;
25653;SDS011;13511;48.622;9.230;2023-11-22T13:08:44;9.77;;;8.80;;
25653;SDS011;13511;48.622;9.230;2023-11-22T13:11:10;9.55;;;8.63;;
25653;SDS011;13511;48.622;9.230;2023-11-22T13:13:36;11.27;;;8.95;;
25653;SDS011;13511;48.622;9.230;2023-11-22T13:16:03;10.10;;;8.80;;
25653;SDS011;13511;48.622;9.230;2023-11-22T13:18:30;13.07;;;9.00;;
25653;SDS011;13511;48.622;9.230;2023-11-22T13:20:56;21.65;;;9.25;;
25653;SDS011;13511;48.622;9.230;2023-11-22T13:23:22;21.58;;;11.60;;
25653;SDS011;13511;48.622;9.230;2023-11-22T13:25:48;11.95;;;9.60;;
25653;SDS011;13511;48.622;9.230;2023-11-22T13:28:14;10.48;;;9.48;;
25653;SDS011;13511;48.622;9.230;2023-11-22T13:30:40;10.70;;;9.35;;
25653;SDS011;13511;48.622;9.230;2023-11-22T13:33:06;9.73;;;8.82;;
25653;SDS011;13511;48.622;9.230;2023-11-22T13:35:32;10.25;;;9.10;;
25653;SDS011;13511;48.622;9.230;2023-11-22T13:38:02;11.52;;;9.13;;
25653;SDS011;13511;48.622;9.230;2023-11-22T13:40:32;12.75;;;8.95;;
25653;SDS011;13511;48.622;9.230;2023-11-22T13:42:58;9.65;;;8.75;;
25653;SDS011;13511;48.622;9.230;2023-11-22T13:45:25;11.32;;;8.88;;
25653;SDS011;13511;48.622;9.230;2023-11-22T13:47:52;9.50;;;8.60;;
25653;SDS011;13511;48.622;9.230;2023-11-22T13:50:32;9.90;;;8.38;;
25653;SDS011;13511;48.622;9.230;2023-11-22T13:52:58;12.07;;;9.75;;
25653;SDS011;13511;48.622;9.230;2023-11-22T13:55:24;9.95;;;8.77;;
25653;SDS011;13511;48.622;9.230;2023-11-22T13:57:54;9.00;;;8.10;;
25653;SDS011;13511;48.622;9.230;2023-11-22T14:00:21;11.82;;;8.93;;
25653;SDS011;13511;48.622;9.230;2023-11-22T14:02:55;9.70;;;8.70;;
25653;SDS011;13511;48.622;9.230;2023-11-22T14:05:27;10.32;;;9.10;;
25653;SDS011;13511;48.622;9.230;2023-11-22T14:07:53;13.20;;;8.60;;
25653;SDS011;13511;48.622;9.230;2023-11-22T14:10:19;9.90;;;8.90;;
25653;SDS011;13511;48.622;9.230;2023-11-22T14:12:47;12.13;;;8.75;;
25653;SDS011;13511;48.622;9.230;2023-11-22T14:15:13;10.15;;;8.65;;
25653;SDS011;13511;48.622;9.230;2023-11-22T14:17:39;9.55;;;8.57;;
25653;SDS011;13511;48.622;9.230;2023-11-22T14:20:08;8.60;;;7.80;;
25653;SDS011;13511;48.622;9.230;2023-11-22T14:22:35;10.25;;;8.55;;
25653;SDS011;13511;48.622;9.230;2023-11-22T14:25:01;10.25;;;7.95;;
25653;SDS011;13511;48.622;9.230;2023-11-22T14:27:28;10.25;;;8.90;;
25653;SDS011;13511;48.622;9.230;2023-11-22T14:29:58;9.18;;;8.27;;
25653;SDS011;13511;48.622;9.230;2023-11-22T14:32:25;8.40;;;7.70;;
25653;SDS011;13511;48.622;9.230;2023-11-22T14:34:51;14.48;;;8.23;;
25653;SDS011;13511;48.622;9.230;2023-11-22T14:37:18;11.00;;;8.32;;
25653;SDS011;13511;48.622;9.230;2023-11-22T14:39:44;13.60;;;8.90;;
25653;SDS011;13511;48.622;9.230;2023-11-22T14:42:10;12.88;;;8.73;;
25653;SDS011;13511;48.622;9.230;2023-11-22T14:44:37;16.92;;;9.73;;
25653;SDS011;13511;48.622;9.230;2023-11-22T14:47:03;10.13;;;8.85;;
25653;SDS011;13511;48.622;9.230;2023-11-22T14:49:37;10.75;;;9.00;;